Time,TemperatureF,DewpointF,PressureIn,WindDirection,WindDirectionDegrees,WindSpeedMPH,WindSpeedGustMPH,Humidity,HourlyPrecipIn,Conditions,Clouds,dailyrainin,SolarRadiationWatts/m^2,SoftwareType,DateUTC
2013-08-18 00:00:00,56.0,55.0,-100.00,ESE,112,0.0,-999.0,93,-99.99,,,-99.99,0.000000,,2013-08-18 04:00:00,
2013-08-18 00:42:00,56.0,55.0,-100.00,ESE,112,0.0,-999.0,93,-99.99,,,-99.99,0.000000,,2013-08-18 04:42:00,
2013-08-18 00:53:00,56.0,55.0,-100.00,ESE,112,0.0,-999.0,93,-99.99,,,-99.99,0.000000,,2013-08-18 04:53:00,
2013-08-18 01:00:00,55.0,53.0,-100.00,WSW,247,0.0,-999.0,94,-99.99,,,-99.99,0.000000,,2013-08-18 05:00:00,
2013-08-18 01:43:00,55.0,53.0,-100.00,WSW,247,0.0,-999.0,94,-99.99,,,-99.99,0.000000,,2013-08-18 05:43:00,
2013-08-18 01:52:00,55.0,53.0,-100.00,WSW,247,0.0,-999.0,94,-99.99,,,-99.99,0.000000,,2013-08-18 05:52:00,
2013-08-18 02:00:00,54.0,53.0,-100.00,East,90,0.0,-999.0,95,-99.99,,,-99.99,0.000000,,2013-08-18 06:00:00,
2013-08-18 02:42:00,54.0,53.0,-100.00,East,90,0.0,-999.0,95,-99.99,,,-99.99,0.000000,,2013-08-18 06:42:00,
2013-08-18 02:52:00,54.0,53.0,-100.00,East,90,0.0,-999.0,95,-99.99,,,-99.99,0.000000,,2013-08-18 06:52:00,
2013-08-18 03:00:00,53.0,52.0,-100.00,ESE,112,0.0,-999.0,96,-99.99,,,-99.99,0.000000,,2013-08-18 07:00:00,
2013-08-18 03:42:00,53.0,52.0,-100.00,ESE,112,0.0,-999.0,96,-99.99,,,-99.99,0.000000,,2013-08-18 07:42:00,
2013-08-18 03:52:00,53.0,52.0,-100.00,ESE,112,0.0,-999.0,96,-99.99,,,-99.99,0.000000,,2013-08-18 07:52:00,
2013-08-18 04:00:00,52.0,51.0,-100.00,SSW,202,0.0,-999.0,97,-99.99,,,-99.99,0.000000,,2013-08-18 08:00:00,
2013-08-18 04:42:00,52.0,51.0,-100.00,SSW,202,0.0,-999.0,97,-99.99,,,-99.99,0.000000,,2013-08-18 08:42:00,
2013-08-18 04:52:00,52.0,51.0,-100.00,SSW,202,0.0,-999.0,97,-99.99,,,-99.99,0.000000,,2013-08-18 08:52:00,
2013-08-18 05:00:00,50.0,50.0,-100.00,South,180,0.0,-999.0,97,-99.99,,,-99.99,0.000000,,2013-08-18 09:00:00,
2013-08-18 05:43:00,50.0,50.0,-100.00,South,180,0.0,-999.0,97,-99.99,,,-99.99,0.000000,,2013-08-18 09:43:00,
2013-08-18 05:53:00,50.0,50.0,-100.00,South,180,0.0,-999.0,97,-99.99,,,-99.99,0.000000,,2013-08-18 09:53:00,
2013-08-18 06:00:00,49.0,49.0,-100.00,SSW,202,0.0,-999.0,97,-99.99,,,-99.99,0.000000,,2013-08-18 10:00:00,
2013-08-18 06:43:00,49.0,49.0,-100.00,SSW,202,0.0,-999.0,97,-99.99,,,-99.99,0.000000,,2013-08-18 10:43:00,
2013-08-18 06:52:00,49.0,49.0,-100.00,SSW,202,0.0,-999.0,97,-99.99,,,-99.99,0.000000,,2013-08-18 10:52:00,
2013-08-18 07:00:00,48.0,48.0,-100.00,South,180,0.0,-999.0,97,-99.99,,,-99.99,1.160000,,2013-08-18 11:00:00,
2013-08-18 07:42:00,48.0,48.0,-100.00,South,180,0.0,-999.0,97,-99.99,,,-99.99,1.160000,,2013-08-18 11:42:00,
2013-08-18 07:52:00,48.0,48.0,-100.00,South,180,0.0,-999.0,97,-99.99,,,-99.99,1.160000,,2013-08-18 11:52:00,
2013-08-18 08:00:00,52.0,51.0,-100.00,NNW,337,0.0,-999.0,98,-99.99,,,-99.99,70.760002,,2013-08-18 12:00:00,
2013-08-18 08:42:00,52.0,51.0,-100.00,NNW,337,0.0,-999.0,98,-99.99,,,-99.99,70.760002,,2013-08-18 12:42:00,
2013-08-18 08:52:00,52.0,51.0,-100.00,NNW,337,0.0,-999.0,98,-99.99,,,-99.99,70.760002,,2013-08-18 12:52:00,
2013-08-18 09:00:00,61.0,58.0,-100.00,NNW,337,0.0,-999.0,89,-99.99,,,-99.99,234.320007,,2013-08-18 13:00:00,
2013-08-18 09:42:00,61.0,58.0,-100.00,NNW,337,0.0,-999.0,89,-99.99,,,-99.99,234.320007,,2013-08-18 13:42:00,
2013-08-18 09:52:00,61.0,58.0,-100.00,NNW,337,0.0,-999.0,89,-99.99,,,-99.99,234.320007,,2013-08-18 13:52:00,
2013-08-18 10:00:00,70.0,59.0,-100.00,ENE,67,0.0,-999.0,67,-99.99,,,-99.99,409.480011,,2013-08-18 14:00:00,
2013-08-18 10:42:00,70.0,59.0,-100.00,ENE,67,0.0,-999.0,67,-99.99,,,-99.99,409.480011,,2013-08-18 14:42:00,
2013-08-18 10:53:00,70.0,59.0,-100.00,ENE,67,0.0,-999.0,67,-99.99,,,-99.99,409.480011,,2013-08-18 14:53:00,
2013-08-18 11:00:00,75.0,58.0,-100.00,SSE,157,1.0,-999.0,55,-99.99,,,-99.99,557.960022,,2013-08-18 15:00:00,
2013-08-18 11:43:00,75.0,58.0,-100.00,SSE,157,1.0,-999.0,55,-99.99,,,-99.99,557.960022,,2013-08-18 15:43:00,
2013-08-18 11:54:00,75.0,58.0,-100.00,SSE,157,1.0,-999.0,55,-99.99,,,-99.99,557.960022,,2013-08-18 15:54:00,
2013-08-18 12:00:00,77.0,54.0,-100.00,South,180,2.0,-999.0,44,-99.99,,,-99.99,698.320007,,2013-08-18 16:00:00,
2013-08-18 12:42:00,77.0,54.0,-100.00,South,180,2.0,-999.0,44,-99.99,,,-99.99,698.320007,,2013-08-18 16:42:00,
2013-08-18 12:52:00,77.0,54.0,-100.00,South,180,2.0,-999.0,44,-99.99,,,-99.99,698.320007,,2013-08-18 16:52:00,
2013-08-18 13:00:00,79.0,53.0,-100.00,SSE,157,3.0,-999.0,40,-99.99,,,-99.99,793.440002,,2013-08-18 17:00:00,
2013-08-18 13:43:00,79.0,53.0,-100.00,SSE,157,3.0,-999.0,40,-99.99,,,-99.99,793.440002,,2013-08-18 17:43:00,
2013-08-18 13:52:00,79.0,53.0,-100.00,SSE,157,3.0,-999.0,40,-99.99,,,-99.99,793.440002,,2013-08-18 17:52:00,
2013-08-18 14:00:00,80.0,52.0,-100.00,SSE,157,2.0,-999.0,38,-99.99,,,-99.99,725.000000,,2013-08-18 18:00:00,
2013-08-18 14:43:00,80.0,52.0,-100.00,SSE,157,2.0,-999.0,38,-99.99,,,-99.99,725.000000,,2013-08-18 18:43:00,
2013-08-18 14:52:00,80.0,52.0,-100.00,SSE,157,2.0,-999.0,38,-99.99,,,-99.99,725.000000,,2013-08-18 18:52:00,
2013-08-18 15:00:00,80.0,52.0,-100.00,SSE,157,3.0,-999.0,37,-99.99,,,-99.99,762.119995,,2013-08-18 19:00:00,
2013-08-18 15:42:00,80.0,52.0,-100.00,SSE,157,3.0,-999.0,37,-99.99,,,-99.99,762.119995,,2013-08-18 19:42:00,
2013-08-18 15:52:00,80.0,52.0,-100.00,SSE,157,3.0,-999.0,37,-99.99,,,-99.99,762.119995,,2013-08-18 19:52:00,
2013-08-18 16:00:00,81.0,53.0,-100.00,SSW,202,3.0,-999.0,37,-99.99,,,-99.99,685.559998,,2013-08-18 20:00:00,
2013-08-18 16:42:00,81.0,53.0,-100.00,SSW,202,3.0,-999.0,37,-99.99,,,-99.99,685.559998,,2013-08-18 20:42:00,
2013-08-18 16:52:00,81.0,53.0,-100.00,SSW,202,3.0,-999.0,37,-99.99,,,-99.99,685.559998,,2013-08-18 20:52:00,
2013-08-18 17:00:00,81.0,52.0,-100.00,South,180,3.0,-999.0,36,-99.99,,,-99.99,571.880005,,2013-08-18 21:00:00,
2013-08-18 17:42:00,81.0,52.0,-100.00,South,180,3.0,-999.0,36,-99.99,,,-99.99,571.880005,,2013-08-18 21:42:00,
2013-08-18 17:53:00,81.0,52.0,-100.00,South,180,3.0,-999.0,36,-99.99,,,-99.99,571.880005,,2013-08-18 21:53:00,
2013-08-18 18:00:00,80.0,53.0,-100.00,SSE,157,3.0,-999.0,38,-99.99,,,-99.99,425.720001,,2013-08-18 22:00:00,
2013-08-18 18:42:00,80.0,53.0,-100.00,SSE,157,3.0,-999.0,38,-99.99,,,-99.99,425.720001,,2013-08-18 22:42:00,
2013-08-18 18:52:00,80.0,53.0,-100.00,SSE,157,3.0,-999.0,38,-99.99,,,-99.99,425.720001,,2013-08-18 22:52:00,
2013-08-18 19:00:00,80.0,54.0,-100.00,SSE,157,2.0,-999.0,40,-99.99,,,-99.99,261.000000,,2013-08-18 23:00:00,
2013-08-18 19:42:00,80.0,54.0,-100.00,SSE,157,2.0,-999.0,40,-99.99,,,-99.99,261.000000,,2013-08-18 23:42:00,
2013-08-18 19:52:00,80.0,54.0,-100.00,SSE,157,2.0,-999.0,40,-99.99,,,-99.99,261.000000,,2013-08-18 23:52:00,
2013-08-18 20:00:00,77.0,57.0,-100.00,South,180,1.0,-999.0,49,-99.99,,,-99.99,113.680000,,2013-08-19 00:00:00,
2013-08-18 20:42:00,77.0,57.0,-100.00,South,180,1.0,-999.0,49,-99.99,,,-99.99,113.680000,,2013-08-19 00:42:00,
2013-08-18 20:52:00,77.0,57.0,-100.00,South,180,1.0,-999.0,49,-99.99,,,-99.99,113.680000,,2013-08-19 00:52:00,
2013-08-18 21:00:00,69.0,59.0,-100.00,SSW,202,1.0,-999.0,71,-99.99,,,-99.99,9.280000,,2013-08-19 01:00:00,
2013-08-18 21:42:00,69.0,59.0,-100.00,SSW,202,1.0,-999.0,71,-99.99,,,-99.99,9.280000,,2013-08-19 01:42:00,
2013-08-18 21:52:00,69.0,59.0,-100.00,SSW,202,1.0,-999.0,71,-99.99,,,-99.99,9.280000,,2013-08-19 01:52:00,
2013-08-18 22:00:00,63.0,58.0,-100.00,West,270,1.0,-999.0,85,-99.99,,,-99.99,0.000000,,2013-08-19 02:00:00,
2013-08-18 22:42:00,63.0,58.0,-100.00,West,270,1.0,-999.0,85,-99.99,,,-99.99,0.000000,,2013-08-19 02:42:00,
2013-08-18 22:52:00,63.0,58.0,-100.00,West,270,1.0,-999.0,85,-99.99,,,-99.99,0.000000,,2013-08-19 02:52:00,
2013-08-18 23:00:00,61.0,57.0,-100.00,SW,225,1.0,-999.0,87,-99.99,,,-99.99,0.000000,,2013-08-19 03:00:00,
2013-08-18 23:42:00,61.0,57.0,-100.00,SW,225,1.0,-999.0,87,-99.99,,,-99.99,0.000000,,2013-08-19 03:42:00,
2013-08-18 23:53:00,61.0,57.0,-100.00,SW,225,1.0,-999.0,87,-99.99,,,-99.99,0.000000,,2013-08-19 03:53:00,